Carcassonne Airport

LFMK · Aude, Occitanie, Frankreich

METAR-Geschichte LFMK · Flughafen Carcassonne

Unten siehst du die METARs der letzten paar Tage. Wähle ein Jahr, um ältere METARs ab dem Jahr 2007 zu durchsuchen.

3. März 2024

Uhrzeit Code Wetter Temp. Sichtweite Wolkendecke Wind METAR/SPECI
10:00
M
7 °C 10 km+ 1.800 ft 280° 280° 15 kt METAR LFMK 030900Z AUTO 28015KT 9999 OVC018 07/04 Q1002 TEMPO 29020G35KT
09:30
M
6 °C 10 km+ 1.800 ft 280° 280° 13 - 24 kt METAR LFMK 030830Z AUTO 28013G24KT 9999 BKN018 OVC025 06/04 Q1001 TEMPO 4000 SHRA SCT035CB
09:00
M
6 °C 10 km+ 2.000 ft 280° 280° 12 kt METAR LFMK 030800Z AUTO 28012KT 9999 OVC020 06/04 Q1001 NOSIG
08:30
M
6 °C 10 km+ 2.200 ft 280° 280° 11 kt METAR LFMK 030730Z AUTO 28011KT 9999 BKN022 OVC028 06/04 Q1001 NOSIG
08:00
V
5 °C 10 km+ 3.700 ft 280° 280° 10 kt METAR LFMK 030700Z AUTO 28010KT 9999 FEW019 SCT029 BKN037 05/04 Q1001 NOSIG
07:30
M
5 °C 10 km+ 2.700 ft 280° 280° 11 kt METAR LFMK 030630Z AUTO 28011KT 9999 SCT020 BKN027 OVC110 05/04 Q1001 NOSIG
07:00
M
5 °C 10 km+ 2.300 ft 270° 270° 10 kt METAR LFMK 030600Z AUTO 27010KT 9999 BKN023 BKN033 BKN078 05/04 Q1000 NOSIG
06:30
M
4 °C 10 km+ 2.200 ft 270° 270° 7 kt METAR LFMK 030530Z AUTO 27007KT 240V300 9999 -RA OVC022 04/04 Q1000 NOSIG
06:00
M
4 °C 10 km+ 2.500 ft 270° 270° 9 kt METAR LFMK 030500Z AUTO 27009KT 240V300 9999 -RA SCT019 BKN025 OVC042 04/03 Q1000 NOSIG
05:30
M
4 °C 10 km+ 2.800 ft 270° 270° 12 kt METAR LFMK 030430Z AUTO 27012KT 9999 -RA FEW017 BKN028 BKN037 04/03 Q1000 NOSIG
05:00
M
3 °C 10 km+ 1.500 ft 270° 270° 13 kt METAR LFMK 030400Z AUTO 27013KT 9999 -RA BKN015 BKN020 OVC034 03/02 Q1000 TEMPO 4000 RA OVC009
04:30
M
3 °C 10 km+ 1.200 ft 270° 270° 11 kt METAR LFMK 030330Z AUTO 27011KT 240V300 9999 -RA OVC012 03/02 Q1000 TEMPO 4000 RA BECMG SCT014 BKN025
04:00
M
3 °C 10 km+ 1.300 ft 280° 280° 13 kt METAR LFMK 030300Z AUTO 28013KT 9999 -RA BKN013 OVC025 03/02 Q1000
03:30
M
3 °C 10 km+ 1.000 ft 280° 280° 13 kt METAR LFMK 030230Z AUTO 28013KT 9999 -RA OVC010 03/02 Q1000
03:00
I
3 °C 10 km+ 900 ft 280° 280° 11 kt METAR LFMK 030200Z AUTO 28011KT 9999 -RA OVC009 03/02 Q1000
02:30
I
3 °C 10 km+ 900 ft 280° 280° 10 kt METAR LFMK 030130Z AUTO 28010KT 9999 -RA BKN009 OVC013 03/02 Q1000
02:00
M
3 °C 10 km+ 1.100 ft 270° 270° 11 kt METAR LFMK 030100Z AUTO 27011KT 240V300 9999 -RA BKN011/// BKN016/// OVC037/// //////TCU 03/02 Q1000
01:30
M
4 °C 10 km+ 1.400 ft 280° 280° 10 kt METAR LFMK 030030Z AUTO 28010KT 240V310 9999 -RA SCT010/// BKN014/// BKN037/// ///TCU 04/03 Q1000
01:00
V
5 °C 10 km+ 5.000 ft 270° 270° 14 kt METAR LFMK 030000Z AUTO 27014KT 9999 -RA FEW013 SCT019 OVC050 05/03 Q1000
00:30
M
6 °C 10 km+ 1.200 ft 270° 270° 14 kt METAR LFMK 022330Z AUTO 27014KT 9999 BKN012 BKN021 OVC027 06/04 Q0999
00:00
M
7 °C 10 km+ 2.000 ft 280° 280° 16 kt METAR LFMK 022300Z AUTO 28016KT 9999 FEW010 OVC020 07/05 Q0999

2. März 2024

Uhrzeit Code Wetter Temp. Sichtweite Wolkendecke Wind METAR/SPECI
23:30
M
7 °C 10 km+ 1.900 ft 280° 280° 16 kt METAR LFMK 022230Z AUTO 28016KT 9999 -RA BKN019 OVC026 07/05 Q0998
23:00
M
9 °C 10 km+ 1.600 ft 280° 280° 16 kt METAR LFMK 022200Z AUTO 28016KT 9999 OVC016 09/06 Q0998
22:30
M
9 °C 10 km+ 1.700 ft 280° 280° 14 kt METAR LFMK 022130Z AUTO 28014KT 9999 OVC017 09/06 Q0997
22:00
V
11 °C 10 km+ 3.400 ft 250° 250° 6 - 17 kt METAR LFMK 022100Z AUTO 25006G17KT 220V300 9999 SCT018 SCT026 BKN034 11/08 Q0997
21:30
V
11 °C 10 km+ - 080° 080° 4 - 14 kt METAR LFMK 022030Z AUTO 08004G14KT 040V190 CAVOK 11/08 Q0996
21:00
V
11 °C 10 km+ - 100° 100° 6 kt METAR LFMK 022000Z AUTO 10006KT 060V150 CAVOK 11/08 Q0995
20:30
V
11 °C 10 km+ - 100° 100° 6 kt METAR LFMK 021930Z AUTO 10006KT 070V140 CAVOK 11/08 Q0995
20:00
V
12 °C 10 km+ - 100° 100° 6 kt METAR LFMK 021900Z AUTO 10006KT 060V140 CAVOK 12/08 Q0995
19:30
V
12 °C 10 km+ - 090° 090° 6 kt METAR LFMK 021830Z AUTO 09006KT 060V130 CAVOK 12/08 Q0995
19:00
V
12 °C 10 km+ - 100° 100° 7 kt METAR LFMK 021800Z AUTO 10007KT 070V140 CAVOK 12/07 Q0995 BECMG 27015G25KT
18:30
V
12 °C 10 km+ - 080° 080° 10 kt METAR LFMK 021730Z AUTO 08010KT CAVOK 12/06 Q0995 BECMG 27015G25KT
18:00
V
13 °C 10 km+ - 090° 090° 7 kt METAR LFMK 021700Z AUTO 09007KT 060V130 CAVOK 13/06 Q0995 BECMG 09015G25KT
17:30
V
13 °C 10 km+ - 090° 090° 9 kt METAR LFMK 021630Z AUTO 09009KT 070V130 CAVOK 13/06 Q0995 BECMG 09015G25KT
17:00
V
13 °C 10 km+ - 080° 080° 13 kt METAR LFMK 021600Z AUTO 08013KT CAVOK 13/06 Q0995 BECMG 09015G25KT
16:30
V
13 °C 10 km+ - 080° 080° 13 kt METAR LFMK 021530Z AUTO 08013KT CAVOK 13/06 Q0996 BECMG 09015G25KT
16:00
V
13 °C 10 km+ - 090° 090° 15 kt METAR LFMK 021500Z AUTO 09015KT CAVOK 13/06 Q0996 BECMG 09015G25KT
15:30
V
14 °C 10 km+ - 080° 080° 14 kt METAR LFMK 021430Z AUTO 08014KT 060V120 CAVOK 14/06 Q0997 TEMPO 12015G25KT
15:00
V
13 °C 10 km+ - 090° 090° 15 kt METAR LFMK 021400Z AUTO 09015KT CAVOK 13/06 Q0997 TEMPO 12015G25KT
14:30
V
13 °C 10 km+ - 090° 090° 15 kt METAR LFMK 021330Z AUTO 09015KT 070V130 CAVOK 13/07 Q0997 TEMPO 12015G25KT
14:00
V
13 °C 10 km+ - 080° 080° 17 kt METAR LFMK 021300Z AUTO 08017KT 060V120 CAVOK 13/08 Q0998 TEMPO 12015G25KT
13:30
V
13 °C 10 km+ - 090° 090° 15 kt METAR LFMK 021230Z AUTO 09015KT CAVOK 13/08 Q0999 TEMPO 12015G25KT
13:00
V
12 °C 10 km+ - 090° 090° 15 kt METAR LFMK 021200Z AUTO 09015KT CAVOK 12/07 Q0999 TEMPO 12015G25KT
12:30
V
12 °C 10 km+ - 090° 090° 13 kt METAR LFMK 021130Z AUTO 09013KT 050V130 CAVOK 12/08 Q1000 TEMPO 12015G25KT
12:00
V
12 °C 10 km+ 22.000 ft 090° 090° 13 kt METAR LFMK 021100Z AUTO 09013KT 060V140 9999 FEW013 BKN220 BKN240 12/08 Q1000 TEMPO 12015G25KT
11:30
M
11 °C 10 km+ 1.300 ft 090° 090° 12 kt METAR LFMK 021030Z AUTO 09012KT 070V140 9999 BKN013 BKN220 BKN240 11/08 Q1001 TEMPO 12015G25KT BECMG NSC
11:00
M
11 °C 10 km+ 1.300 ft 090° 090° 15 kt METAR LFMK 021000Z AUTO 09015KT 060V140 9999 BKN013 11/08 Q1001 TEMPO 12015G25KT BECMG NSC
10:30
M
12 °C 10 km+ 1.600 ft 090° 090° 13 kt METAR LFMK 020930Z AUTO 09013KT 9999 BKN016 12/09 Q1002 TEMPO 12015G25KT BKN012
10:00
M
11 °C 10 km+ 1.600 ft 090° 090° 10 kt METAR LFMK 020900Z AUTO 09010KT 050V130 9999 BKN016 BKN022 11/08 Q1002 TEMPO 09015G25KT
09:30
M
7 °C 10 km+ 1.500 ft Var Var 3 kt METAR LFMK 020830Z AUTO VRB03KT 9999 OVC015 07/05 Q1002 TEMPO 09015G25KT
09:00
M
6 °C 10 km+ 1.400 ft Var Var 2 kt METAR LFMK 020800Z AUTO VRB02KT 9999 BKN014 OVC020 06/05 Q1003 BECMG NSC
08:30
M
5 °C 10 km+ 1.200 ft Var Var 3 kt METAR LFMK 020730Z AUTO VRB03KT 9999 BKN012 OVC240 05/04 Q1003 BECMG NSC
08:00
V
4 °C 10 km+ 23.000 ft Var Var 2 kt METAR LFMK 020700Z AUTO VRB02KT 9999 SCT015 BKN230 BKN250 04/03 Q1003 TEMPO BKN012
07:30
V
4 °C 10 km+ 18.000 ft 160° 160° 2 kt METAR LFMK 020630Z AUTO 16002KT 9999 FEW015 BKN180 BKN210 04/03 Q1004 TEMPO BKN012 BECMG 09010KT
07:00
V
4 °C 10 km+ - Var Var 2 kt METAR LFMK 020600Z AUTO VRB02KT CAVOK 04/03 Q1004 TEMPO BKN012
06:30
V
4 °C 10 km+ - 350° 350° 3 kt METAR LFMK 020530Z AUTO 35003KT CAVOK 04/03 Q1005 TEMPO BKN012 BECMG 09010KT
06:00
V
4 °C 10 km+ - Var Var 2 kt METAR LFMK 020500Z AUTO VRB02KT CAVOK 04/03 Q1005 TEMPO BKN012
05:30
V
4 °C 10 km+ - 160° 160° 4 kt METAR LFMK 020430Z AUTO 16004KT 120V200 CAVOK 04/03 Q1005 TEMPO BKN012
05:00
V
4 °C 10 km+ - 170° 170° 5 kt METAR LFMK 020400Z AUTO 17005KT 140V210 CAVOK 04/03 Q1006 TEMPO BKN012
04:30
V
4 °C 10 km+ - 140° 140° 4 kt METAR LFMK 020330Z AUTO 14004KT 080V190 CAVOK 04/03 Q1006 TEMPO BKN012
04:00
V
3 °C 10 km+ - 280° 280° 3 kt METAR LFMK 020300Z AUTO 28003KT CAVOK 03/03 Q1006 TEMPO BKN012 BECMG 09010KT
03:30
V
3 °C 10 km+ - Var Var 3 kt METAR LFMK 020230Z AUTO VRB03KT CAVOK 03/03 Q1007 TEMPO BKN012
03:00
V
3 °C 10 km+ - 150° 150° 1 kt METAR LFMK 020200Z AUTO 15001KT CAVOK 03/02 Q1007
02:30
V
4 °C 10 km+ - Var Var 3 kt METAR LFMK 020130Z AUTO VRB03KT 9999 FEW076 04/03 Q1007
02:00
V
5 °C 10 km+ - 150° 150° 3 kt METAR LFMK 020100Z AUTO 15003KT 120V180 9999 FEW076 05/04 Q1007
01:30
V
5 °C 10 km+ - Var Var 2 kt METAR LFMK 020030Z AUTO VRB02KT 9999 SCT074 05/04 Q1008
01:00
V
5 °C 10 km+ 7.600 ft Var Var 2 kt METAR LFMK 020000Z AUTO VRB02KT 9999 OVC076 05/04 Q1008
00:30
V
5 °C 10 km+ - Var Var 2 kt METAR LFMK 012330Z AUTO VRB02KT CAVOK 05/04 Q1008
00:00
V
5 °C 10 km+ - 360° 360° 0 kt METAR LFMK 012300Z AUTO 00000KT 9999 SCT082 05/03 Q1008

1. März 2024

Uhrzeit Code Wetter Temp. Sichtweite Wolkendecke Wind METAR/SPECI
23:30
V
5 °C 10 km+ - Var Var 3 kt METAR LFMK 012230Z AUTO VRB03KT CAVOK 05/04 Q1008
23:00
V
6 °C 10 km+ - Var Var 3 kt METAR LFMK 012200Z AUTO VRB03KT CAVOK 06/05 Q1008
22:30
V
6 °C 10 km+ - 120° 120° 3 kt METAR LFMK 012130Z AUTO 12003KT CAVOK 06/04 Q1008
22:00
V
7 °C 10 km+ - 160° 160° 3 kt METAR LFMK 012100Z AUTO 16003KT 120V200 CAVOK 07/05 Q1009
21:30
V
7 °C 10 km+ - 170° 170° 3 kt METAR LFMK 012030Z AUTO 17003KT CAVOK 07/05 Q1009
21:00
V
7 °C 10 km+ - 160° 160° 3 kt METAR LFMK 012000Z AUTO 16003KT CAVOK 07/05 Q1009
20:30
V
7 °C 10 km+ - 170° 170° 3 kt METAR LFMK 011930Z AUTO 17003KT 140V210 CAVOK 07/05 Q1009
20:00
V
8 °C 10 km+ - 200° 200° 3 kt METAR LFMK 011900Z AUTO 20003KT CAVOK 08/04 Q1009
19:30
V
9 °C 10 km+ - Var Var 3 kt METAR LFMK 011830Z AUTO VRB03KT CAVOK 09/05 Q1009
19:00
V
12 °C 10 km+ 5.800 ft 250° 250° 3 kt METAR LFMK 011800Z AUTO 25003KT 9999 BKN058 12/05 Q1008 NOSIG
18:30
V
12 °C 10 km+ 5.800 ft 270° 270° 4 kt METAR LFMK 011730Z AUTO 27004KT 240V300 9999 OVC058 12/06 Q1009 NOSIG
18:00
V
13 °C 10 km+ 6.000 ft 280° 280° 5 kt METAR LFMK 011700Z AUTO 28005KT 9999 BKN060 13/06 Q1009 NOSIG
17:30
V
13 °C 10 km+ 7.400 ft 290° 290° 10 kt METAR LFMK 011630Z AUTO 29010KT 9999 FEW064 BKN074 13/05 Q1009 NOSIG
17:00
V
14 °C 10 km+ 6.800 ft 290° 290° 10 kt METAR LFMK 011600Z AUTO 29010KT 9999 BKN068 BKN078 14/05 Q1009 NOSIG
16:30
V
14 °C 10 km+ 8.200 ft 290° 290° 13 kt METAR LFMK 011530Z AUTO 29013KT 250V310 9999 FEW066 BKN082 14/05 Q1009 BECMG VRB03KT
16:00
V
15 °C 10 km+ - 280° 280° 11 kt METAR LFMK 011500Z AUTO 28011KT 9999 FEW056 15/05 Q1010 NOSIG
15:30
V
14 °C 10 km+ 5.400 ft 290° 290° 15 kt METAR LFMK 011430Z AUTO 29015KT 260V320 9999 FEW045 OVC054 14/05 Q1010 NOSIG
15:00
V
14 °C 10 km+ 5.400 ft 280° 280° 15 kt METAR LFMK 011400Z AUTO 28015KT 9999 SCT044 BKN054 14/04 Q1010 NOSIG
14:30
V
14 °C 10 km+ - 280° 280° 15 kt METAR LFMK 011330Z AUTO 28015KT 250V310 9999 FEW042 14/05 Q1011 NOSIG
14:00
V
13 °C 10 km+ - 290° 290° 17 kt METAR LFMK 011300Z AUTO 29017KT 9999 FEW041 SCT052 13/05 Q1011 NOSIG
13:30
V
13 °C 10 km+ 4.800 ft 290° 290° 17 kt METAR LFMK 011230Z AUTO 29017KT 9999 BKN048 BKN056 13/04 Q1012 NOSIG
13:00
V
12 °C 10 km+ 5.000 ft 290° 290° 14 kt METAR LFMK 011200Z AUTO 29014KT 9999 FEW040 BKN050 12/04 Q1012 TEMPO 27016G26KT
12:30
V
12 °C 10 km+ 3.900 ft 280° 280° 15 kt METAR LFMK 011130Z AUTO 28015KT 240V300 9999 BKN039 BKN048 OVC054 12/04 Q1013 TEMPO 27016G26KT
12:00
V
13 °C 10 km+ 3.600 ft 280° 280° 15 kt METAR LFMK 011100Z AUTO 28015KT 9999 BKN036 BKN042 13/05 Q1013 TEMPO 27016G26KT
11:30
V
12 °C 10 km+ 3.400 ft 290° 290° 15 kt METAR LFMK 011030Z AUTO 29015KT 9999 BKN034 12/05 Q1013 TEMPO 27016G26KT
11:00
V
10 °C 10 km+ 3.200 ft 280° 280° 15 kt METAR LFMK 011000Z AUTO 28015KT 250V310 9999 BKN032 BKN039 10/04 Q1014 TEMPO 27016G26KT
10:30
V
10 °C 10 km+ 3.700 ft 280° 280° 11 kt METAR LFMK 010930Z AUTO 28011KT 9999 BKN037 BKN045 10/05 Q1014 TEMPO 27016G26KT
10:00
V
9 °C 10 km+ 3.400 ft 280° 280° 11 kt METAR LFMK 010900Z AUTO 28011KT 9999 BKN034 09/05 Q1014 NOSIG
09:30
V
8 °C 10 km+ - 270° 270° 12 kt METAR LFMK 010830Z AUTO 27012KT 9999 SCT031 SCT039 08/05 Q1014 NOSIG
09:00
V
8 °C 10 km+ - 280° 280° 17 kt METAR LFMK 010800Z AUTO 28017KT 9999 FEW028 08/05 Q1014 NOSIG
08:30
V
7 °C 10 km+ 4.700 ft 270° 270° 11 kt METAR LFMK 010730Z AUTO 27011KT 9999 SCT028 BKN047 07/05 Q1014 NOSIG
08:00
M
7 °C 10 km+ 2.600 ft 270° 270° 10 kt METAR LFMK 010700Z AUTO 27010KT 230V300 9999 SCT020 BKN026 BKN032 07/05 Q1014 NOSIG
07:30
V
7 °C 10 km+ 3.100 ft 280° 280° 11 kt METAR LFMK 010630Z AUTO 28011KT 9999 SCT019 SCT025 BKN031 07/05 Q1014 NOSIG
07:00
M
7 °C 10 km+ 1.900 ft 270° 270° 13 kt METAR LFMK 010600Z AUTO 27013KT 9999 BKN019 BKN024 OVC044 07/05 Q1014 TEMPO 27020G30KT RA SCT012TCU BKN014